Time;durP1;ratioP1;P1;durP2;ratioP2;P2;SDS_P1;SDS_P2;PMS_P1;PMS_P2;Temp;Humidity;BMP_temperature;BMP_pressure;BME280_temperature;BME280_humidity;BME280_pressure;Samples;Min_cycle;Max_cycle;Signal;HPM_P1;HPM_P2
2024/04/16 00:02:11;;;;;;;50.40;25.70;;;;;;;9.54;100.00;97432.31;271214;1270;22415;-82
2024/04/16 00:08:12;;;;;;;53.70;27.00;;;;;;;9.49;100.00;97431.98;269571;1271;22567;-82
2024/04/16 00:14:13;;;;;;;42.30;24.00;;;;;;;9.52;100.00;97438.58;269110;1270;22538;-82
2024/04/16 00:20:26;;;;;;;26.40;10.90;;;;;;;9.54;100.00;97433.25;269997;1271;22420;-82
2024/04/16 00:26:27;;;;;;;19.70;10.20;;;;;;;9.66;100.00;97432.14;270764;1270;22659;-82
2024/04/16 00:32:29;;;;;;;12.90;6.60;;;;;;;9.80;100.00;97432.75;271463;1262;22491;-82
2024/04/16 00:38:30;;;;;;;10.60;5.10;;;;;;;9.93;100.00;97437.69;272847;1270;24373;-85
2024/04/16 00:44:33;;;;;;;11.20;4.60;;;;;;;9.99;100.00;97439.41;273310;1272;22300;-81
2024/04/16 00:50:39;;;;;;;12.30;4.70;;;;;;;10.06;100.00;97439.73;273327;1271;22424;-82
2024/04/16 00:57:23;;;;;;;7.90;4.10;;;;;;;10.17;100.00;97420.65;272424;1270;22244;-83
2024/04/16 01:03:59;;;;;;;7.30;3.30;;;;;;;10.24;100.00;97408.52;272935;1266;22640;-82
2024/04/16 01:10:29;;;;;;;4.30;2.20;;;;;;;10.30;100.00;97397.58;272748;1272;22401;-81
2024/04/16 01:17:12;;;;;;;9.40;2.30;;;;;;;10.44;100.00;97369.80;272452;1270;22365;-82
2024/04/16 01:24:04;;;;;;;8.60;2.20;;;;;;;10.53;100.00;97356.70;273065;1272;22251;-81
2024/04/16 01:30:28;;;;;;;5.00;1.50;;;;;;;10.62;100.00;97344.20;273329;1272;22263;-81
2024/04/16 01:37:11;;;;;;;9.10;2.50;;;;;;;10.68;100.00;97348.09;273263;1271;22256;-82
2024/04/16 01:43:12;;;;;;;9.40;1.70;;;;;;;10.69;100.00;97353.02;272737;1270;22423;-81
2024/04/16 01:49:19;;;;;;;7.20;1.40;;;;;;;10.85;100.00;97357.98;273438;1272;22220;-82
2024/04/16 01:55:43;;;;;;;4.50;1.10;;;;;;;10.97;100.00;97376.17;273230;1271;22204;-81
2024/04/16 02:01:50;;;;;;;7.00;2.40;;;;;;;11.05;100.00;97355.24;273928;1259;22414;31
2024/04/16 02:08:38;;;;;;;5.00;1.20;;;;;;;11.13;100.00;97369.58;272719;1271;22556;-82
2024/04/16 02:15:48;;;;;;;12.20;5.90;;;;;;;11.15;100.00;97396.15;273022;1272;22386;-81
2024/04/16 02:22:15;;;;;;;11.00;3.40;;;;;;;11.06;100.00;97449.48;265149;1268;10525158;-82
2024/04/16 02:29:07;;;;;;;5.40;2.40;;;;;;;10.89;100.00;97453.44;272010;1271;22275;-82
2024/04/16 02:35:32;;;;;;;4.70;1.30;;;;;;;10.63;100.00;97422.13;273234;1271;23421;-82
2024/04/16 02:42:17;;;;;;;3.80;0.60;;;;;;;10.38;100.00;97438.11;273104;1275;22388;-81
2024/04/16 02:49:09;;;;;;;5.30;0.70;;;;;;;10.18;100.00;97448.45;273028;1272;22568;-82
2024/04/16 02:55:56;;;;;;;1.90;0.60;;;;;;;10.03;100.00;97460.94;269781;1271;22257;-82
2024/04/16 03:01:57;;;;;;;5.20;2.10;;;;;;;9.84;100.00;97448.79;272779;1272;22426;-82
2024/04/16 03:07:58;;;;;;;5.90;1.10;;;;;;;9.67;100.00;97452.09;272688;1271;23461;-82
2024/04/16 03:14:00;;;;;;;2.80;0.70;;;;;;;9.56;100.00;97454.00;270838;1271;22583;-81
2024/04/16 03:20:02;;;;;;;3.70;0.60;;;;;;;9.51;100.00;97439.38;269231;1268;23713;-82
2024/04/16 03:26:09;;;;;;;2.30;0.70;;;;;;;9.43;100.00;97433.67;269417;1271;22571;-81
2024/04/16 03:32:13;;;;;;;3.20;0.70;;;;;;;9.33;100.00;97429.71;271699;1271;22285;-81
2024/04/16 03:38:14;;;;;;;2.80;1.00;;;;;;;9.27;100.00;97424.23;271333;1271;22450;-84
2024/04/16 03:44:36;;;;;;;2.90;1.20;;;;;;;9.23;100.00;97417.70;273211;1273;22331;-81
2024/04/16 03:50:37;;;;;;;2.80;1.00;;;;;;;9.24;100.00;97418.63;270924;1272;22381;-82
2024/04/16 03:57:02;;;;;;;4.70;0.80;;;;;;;9.22;100.00;97425.83;273055;1271;22295;-81
2024/04/16 04:03:05;;;;;;;5.00;1.40;;;;;;;9.15;100.00;97420.44;272793;1271;23637;-82
2024/04/16 04:09:08;;;;;;;3.40;1.30;;;;;;;9.11;100.00;97429.27;271492;1272;22626;-81
2024/04/16 04:15:09;;;;;;;2.60;0.60;;;;;;;9.09;100.00;97431.08;269018;1271;22596;-81
2024/04/16 04:21:11;;;;;;;4.00;1.00;;;;;;;9.05;100.00;97458.95;269307;1271;23090;-81
2024/04/16 04:27:11;;;;;;;4.40;1.40;;;;;;;9.08;100.00;97481.40;269533;1272;23234;-83
2024/04/16 04:33:14;;;;;;;5.30;1.90;;;;;;;9.05;100.00;97483.84;269234;1271;22585;-80
2024/04/16 04:39:19;;;;;;;5.70;1.70;;;;;;;8.94;100.00;97494.52;271650;1272;23311;-81
2024/04/16 04:45:22;;;;;;;5.90;1.20;;;;;;;8.96;100.00;97514.23;272793;1272;22213;-81
2024/04/16 04:51:23;;;;;;;3.70;1.20;;;;;;;9.00;100.00;97516.94;270770;1271;22573;-82
2024/04/16 04:57:24;;;;;;;2.30;1.00;;;;;;;8.95;100.00;97518.61;269856;1268;22938;-83
2024/04/16 05:03:45;;;;;;;3.00;1.30;;;;;;;8.97;100.00;97536.59;270575;1271;23976;-82
2024/04/16 05:10:24;;;;;;;7.30;2.60;;;;;;;9.00;100.00;97556.79;272770;1272;22437;-83
2024/04/16 05:16:25;;;;;;;16.90;1.50;;;;;;;9.01;100.00;97569.09;269941;1271;22273;-85
2024/04/16 05:23:07;;;;;;;3.40;0.90;;;;;;;9.01;100.00;97562.09;272916;1272;22272;-82
2024/04/16 05:30:09;;;;;;;5.10;0.90;;;;;;;8.94;100.00;97563.21;272995;1274;22248;-82
2024/04/16 05:36:55;;;;;;;7.00;0.80;;;;;;;8.92;100.00;97562.59;272710;1272;23293;-83
2024/04/16 05:42:58;;;;;;;6.70;1.80;;;;;;;8.92;100.00;97562.66;272500;1271;22290;-83
2024/04/16 05:48:59;;;;;;;8.90;2.30;;;;;;;8.96;100.00;97569.20;271896;1272;22549;-82
2024/04/16 05:55:05;;;;;;;5.60;1.80;;;;;;;8.92;100.00;97585.45;272217;1272;22362;-82
2024/04/16 06:01:06;;;;;;;8.20;1.80;;;;;;;8.80;100.00;97593.98;272809;1272;22499;-82
2024/04/16 06:07:07;;;;;;;9.40;2.20;;;;;;;8.71;100.00;97599.41;270975;1271;22536;-82
2024/04/16 06:13:33;;;;;;;5.20;2.90;;;;;;;8.68;100.00;97605.81;272664;1272;22273;-83
2024/04/16 06:19:34;;;;;;;9.30;3.50;;;;;;;8.64;100.00;97635.28;272859;1271;22356;-83
2024/04/16 06:25:38;;;;;;;7.90;3.30;;;;;;;8.62;100.00;97648.30;271986;1266;23418;-83
2024/04/16 06:31:40;;;;;;;3.40;2.20;;;;;;;8.60;100.00;97636.24;272570;1271;23014;-81
2024/04/16 06:38:07;;;;;;;3.10;1.80;;;;;;;8.56;100.00;97636.40;271565;1271;22546;-80
2024/04/16 06:44:08;;;;;;;4.00;2.20;;;;;;;8.53;100.00;97640.23;270729;1271;22658;-84
2024/04/16 06:50:25;;;;;;;4.00;1.70;;;;;;;8.53;100.00;97665.86;272507;1272;22304;-83
2024/04/16 06:56:51;;;;;;;2.90;1.40;;;;;;;8.47;100.00;97704.91;272521;1273;23450;-83
2024/04/16 07:03:39;;;;;;;4.80;1.70;;;;;;;8.34;100.00;97730.56;271133;1271;22939;-81
2024/04/16 07:10:05;;;;;;;2.10;1.80;;;;;;;8.28;100.00;97723.23;272938;1272;22354;-80
2024/04/16 07:16:48;;;;;;;3.60;2.10;;;;;;;8.28;100.00;97695.35;272875;1278;22260;-81
2024/04/16 07:23:21;;;;;;;4.60;2.50;;;;;;;8.31;100.00;97667.84;273136;1279;23451;-82
2024/04/16 07:29:47;;;;;;;4.30;2.50;;;;;;;8.35;100.00;97669.02;273053;1272;22308;-82
2024/04/16 07:36:08;;;;;;;4.40;1.90;;;;;;;8.35;100.00;97673.30;273106;1260;23096;-82
2024/04/16 07:42:39;;;;;;;6.80;3.60;;;;;;;8.41;100.00;97691.84;272636;1272;22598;-80
2024/04/16 07:49:26;;;;;;;7.80;4.00;;;;;;;8.38;100.00;97726.51;272406;1272;22639;-83
2024/04/16 07:55:50;;;;;;;7.10;3.80;;;;;;;8.35;100.00;97742.33;273260;1274;23074;-82
2024/04/16 08:02:18;;;;;;;4.70;3.20;;;;;;;8.34;100.00;97763.20;272510;1273;22295;-82
2024/04/16 08:09:12;;;;;;;5.70;2.80;;;;;;;8.44;100.00;97774.19;271470;1272;22651;-82
2024/04/16 08:15:14;;;;;;;5.90;2.90;;;;;;;8.54;100.00;97792.95;273172;1272;22261;-82
2024/04/16 08:21:24;;;;;;;9.20;2.50;;;;;;;8.53;100.00;97790.46;273153;1276;22343;-82
2024/04/16 08:28:08;;;;;;;2.60;1.80;;;;;;;8.42;100.00;97791.41;273165;1274;22318;-82
2024/04/16 08:34:16;;;;;;;4.60;2.00;;;;;;;8.44;100.00;97772.77;270769;1272;23533;-81
2024/04/16 08:40:46;;;;;;;8.40;2.40;;;;;;;8.62;100.00;97770.52;269463;1271;24986;-81
2024/04/16 08:47:37;;;;;;;2.50;1.20;;;;;;;8.81;100.00;97771.52;270502;1273;22284;-81
2024/04/16 08:54:30;;;;;;;7.50;2.00;;;;;;;8.89;99.11;97802.54;273184;1277;23103;-81
2024/04/16 09:00:39;;;;;;;4.00;1.60;;;;;;;8.87;95.64;97799.73;273086;1272;23234;-81
2024/04/16 09:06:41;;;;;;;4.50;1.50;;;;;;;8.69;93.80;97816.66;272709;1272;22483;-81
2024/04/16 09:13:29;;;;;;;3.50;1.40;;;;;;;8.67;95.99;97814.16;273084;1276;22270;-81
2024/04/16 09:20:20;;;;;;;3.40;1.80;;;;;;;8.75;93.53;97820.08;273172;1277;22275;-81
2024/04/16 09:26:21;;;;;;;3.30;1.10;;;;;;;8.77;94.39;97823.98;272449;1257;22708;-81
2024/04/16 09:39:56;;;;;;;2.10;1.10;;;;;;;9.03;92.51;97812.48;269904;1280;23071;-84
2024/04/16 09:46:29;;;;;;;2.60;1.20;;;;;;;9.20;91.36;97812.84;271519;1272;22269;-81
2024/04/16 09:52:35;;;;;;;8.30;1.40;;;;;;;9.26;92.10;97814.00;272871;1273;22252;-82
2024/04/16 09:58:36;;;;;;;3.40;1.00;;;;;;;9.48;92.28;97814.23;272254;1271;23439;-82
2024/04/16 10:04:37;;;;;;;1.90;1.10;;;;;;;9.74;90.39;97811.48;271363;1264;24806;-83
2024/04/16 10:18:42;;;;;;;5.50;1.10;;;;;;;9.79;88.32;97828.02;270299;1272;22651;-81
2024/04/16 10:25:23;;;;;;;1.50;0.80;;;;;;;9.93;87.56;97851.70;269589;1274;26299;-81
2024/04/16 10:31:49;;;;;;;2.40;1.00;;;;;;;9.94;85.57;97860.68;269744;1272;22284;-81
2024/04/16 10:37:51;;;;;;;4.40;1.50;;;;;;;9.84;86.40;97852.52;269648;1273;24969;-82
2024/04/16 10:43:54;;;;;;;7.10;1.30;;;;;;;9.85;86.65;97846.98;270240;1272;22923;-82
2024/04/16 10:50:19;;;;;;;2.40;1.10;;;;;;;10.15;86.58;97843.41;269333;1274;22561;-81
2024/04/16 10:56:20;;;;;;;3.80;0.80;;;;;;;10.31;85.26;97838.48;270778;1272;22415;-81
2024/04/16 11:02:42;;;;;;;2.90;1.30;;;;;;;10.44;83.79;97836.90;272121;1271;22638;-80
2024/04/16 11:08:50;;;;;;;3.70;0.90;;;;;;;10.36;82.38;97818.81;270922;1272;22655;-82
2024/04/16 11:14:52;;;;;;;2.30;0.80;;;;;;;10.50;82.28;97804.33;270194;1273;22771;-81
2024/04/16 11:20:54;;;;;;;1.30;0.90;;;;;;;11.20;81.89;97801.43;269646;1271;22520;-82
2024/04/16 11:27:20;;;;;;;2.90;1.60;;;;;;;11.64;80.84;97799.39;269673;1272;23043;-81
2024/04/16 11:40:12;;;;;;;2.80;1.00;;;;;;;11.49;77.26;97831.11;270753;1264;22450;-82
2024/04/16 11:47:03;;;;;;;1.50;0.70;;;;;;;11.31;77.21;97817.60;270117;1271;22555;-82
2024/04/16 12:00:28;;;;;;;2.90;0.90;;;;;;;11.24;76.15;97836.94;269541;1265;23668;-82
2024/04/16 12:06:53;;;;;;;4.20;1.10;;;;;;;11.05;74.14;97824.20;269604;1271;23675;-82
2024/04/16 12:20:26;;;;;;;1.70;0.90;;;;;;;11.19;75.66;97827.05;269894;1271;22670;-82
2024/04/16 12:34:37;;;;;;;2.50;1.20;;;;;;;11.06;73.47;97790.31;273087;1279;22332;-82
2024/04/16 12:41:24;;;;;;;2.80;1.30;;;;;;;10.94;72.22;97761.40;272916;1276;22286;-81
2024/04/16 12:47:55;;;;;;;2.10;1.20;;;;;;;10.94;72.79;97777.60;273101;1279;22361;-82
2024/04/16 12:54:43;;;;;;;4.00;1.20;;;;;;;11.08;73.88;97766.03;273090;1274;22285;-82
2024/04/16 13:01:30;;;;;;;5.50;1.00;;;;;;;11.20;71.92;97780.55;273012;1274;22264;-82
2024/04/16 13:08:22;;;;;;;4.90;1.40;;;;;;;11.21;72.73;97777.17;273090;1272;22447;-82
2024/04/16 13:22:02;;;;;;;3.60;1.30;;;;;;;11.18;73.37;97770.01;271949;1279;22309;-83
2024/04/16 13:28:04;;;;;;;3.30;1.20;;;;;;;11.21;72.42;97746.48;272399;1272;22258;-83
2024/04/16 13:34:55;;;;;;;8.10;1.40;;;;;;;11.22;70.99;97737.96;272880;1274;22715;-82
2024/04/16 13:40:58;;;;;;;3.50;1.30;;;;;;;11.17;70.32;97765.55;269627;1271;22552;-83
2024/04/16 13:47:43;;;;;;;5.00;1.00;;;;;;;11.07;69.98;97767.23;268968;1272;23789;-83
2024/04/16 13:54:46;;;;;;;2.90;1.10;;;;;;;11.00;71.36;97768.63;272187;1276;23146;-83
2024/04/16 14:01:28;;;;;;;2.00;0.80;;;;;;;10.95;71.02;97758.75;269569;1271;23494;-82
2024/04/16 14:07:57;;;;;;;3.10;1.00;;;;;;;11.12;71.48;97749.71;269689;1271;23039;-82
2024/04/16 14:14:05;;;;;;;2.80;0.90;;;;;;;11.35;70.00;97741.08;271150;1271;23778;-83
2024/04/16 14:20:56;;;;;;;4.80;1.20;;;;;;;11.48;70.58;97750.63;272157;1271;270577;-84
2024/04/16 14:27:23;;;;;;;2.80;0.80;;;;;;;11.51;68.11;97750.98;272442;1268;22278;-82
2024/04/16 14:33:59;;;;;;;5.40;1.00;;;;;;;11.41;68.06;97748.98;273045;1271;22273;-83
2024/04/16 14:40:29;;;;;;;3.50;1.10;;;;;;;11.34;67.51;97764.17;270942;1264;22334;-82
2024/04/16 14:46:58;;;;;;;3.40;0.70;;;;;;;11.23;65.95;97768.46;272515;1271;22260;-84
2024/04/16 14:53:24;;;;;;;3.20;1.20;;;;;;;11.14;67.33;97771.98;273047;1272;22266;-83
2024/04/16 14:59:47;;;;;;;2.70;0.90;;;;;;;11.11;67.78;97774.70;272127;1264;22169;-83
2024/04/16 15:05:56;;;;;;;6.00;1.00;;;;;;;11.04;67.95;97765.68;272613;1275;23517;-83
2024/04/16 15:12:49;;;;;;;6.60;1.50;;;;;;;10.95;68.07;97747.87;273189;1279;22279;-83
2024/04/16 15:19:20;;;;;;;6.60;1.30;;;;;;;10.81;67.47;97746.13;273043;1277;22226;-83
2024/04/16 15:25:46;;;;;;;2.30;1.00;;;;;;;10.71;67.91;97748.25;273037;1279;22571;-82
2024/04/16 15:31:48;;;;;;;2.70;1.10;;;;;;;10.63;68.01;97736.29;272277;1269;23353;-83
2024/04/16 15:37:49;;;;;;;4.10;1.10;;;;;;;10.55;67.94;97734.23;269684;1271;26087;-82
2024/04/16 15:43:52;;;;;;;5.30;1.50;;;;;;;10.49;68.53;97743.13;271483;1271;22259;-83
2024/04/16 15:50:42;;;;;;;4.60;1.30;;;;;;;10.39;68.51;97745.34;270802;1271;22718;-83
2024/04/16 15:57:04;;;;;;;3.70;1.40;;;;;;;10.28;68.01;97749.09;269631;1271;23374;-83
2024/04/16 16:03:32;;;;;;;5.70;1.70;;;;;;;10.27;68.87;97746.05;272990;1271;22470;-82
2024/04/16 16:11:09;;;;;;;4.40;1.50;;;;;;;10.22;70.36;97742.19;272977;1279;23216;-83
2024/04/16 16:17:36;;;;;;;9.00;1.80;;;;;;;10.08;69.24;97723.06;271141;1272;22644;-82
2024/04/16 16:23:38;;;;;;;2.40;1.20;;;;;;;10.02;68.86;97716.45;270555;1272;22611;-83
2024/04/16 16:29:40;;;;;;;6.90;1.30;;;;;;;10.03;69.91;97729.09;270728;1272;22567;-82
2024/04/16 16:36:05;;;;;;;5.10;1.00;;;;;;;9.92;68.87;97726.11;270095;1267;22575;-82
2024/04/16 16:42:37;;;;;;;4.60;1.20;;;;;;;9.80;68.35;97707.45;271093;1271;22577;-82
2024/04/16 16:48:40;;;;;;;1.90;1.30;;;;;;;9.61;67.19;97700.15;270493;1271;22808;-83
2024/04/16 16:54:43;;;;;;;4.50;1.50;;;;;;;9.46;67.74;97697.10;273076;1270;22417;-83
2024/04/16 17:00:58;;;;;;;3.90;1.50;;;;;;;9.29;67.43;97697.04;272980;1273;22486;-83
2024/04/16 17:07:42;;;;;;;4.00;1.80;;;;;;;9.16;68.64;97708.09;271797;1273;22250;-83
2024/04/16 17:14:21;;;;;;;6.60;1.60;;;;;;;9.00;69.38;97717.74;272023;1274;22298;-82
2024/04/16 17:20:24;;;;;;;5.10;1.40;;;;;;;8.83;71.03;97725.58;270964;1272;22638;-83
2024/04/16 17:26:29;;;;;;;6.30;1.60;;;;;;;8.66;71.08;97728.11;270389;1272;22538;-82
2024/04/16 17:32:36;;;;;;;3.50;1.60;;;;;;;8.50;70.89;97737.40;270095;1272;23639;-81
2024/04/16 17:38:59;;;;;;;4.00;1.70;;;;;;;8.36;71.64;97744.96;270470;1272;22593;-81
2024/04/16 17:45:41;;;;;;;3.70;1.80;;;;;;;8.23;71.47;97742.54;272730;1271;22293;-81
2024/04/16 17:51:43;;;;;;;4.90;2.20;;;;;;;8.11;71.28;97745.09;272225;1271;22253;-81
2024/04/16 17:58:29;;;;;;;9.00;2.90;;;;;;;7.98;71.45;97754.50;272346;1271;22303;-84
2024/04/16 18:04:52;;;;;;;5.70;2.30;;;;;;;7.80;71.41;97759.67;270667;1269;22418;-81
2024/04/16 18:11:18;;;;;;;9.80;3.50;;;;;;;7.60;71.71;97774.33;270639;1271;22700;-82
2024/04/16 18:17:19;;;;;;;7.70;3.70;;;;;;;7.42;72.12;97769.90;269630;1272;22731;-80
2024/04/16 18:24:09;;;;;;;9.90;3.50;;;;;;;7.28;72.98;97768.30;269773;1271;22604;-81
2024/04/16 18:30:11;;;;;;;8.20;3.30;;;;;;;7.11;73.29;97772.17;271124;1271;25455;-80
2024/04/16 18:37:03;;;;;;;7.00;3.00;;;;;;;6.96;73.43;97775.21;272566;1271;22292;-81
2024/04/16 18:43:21;;;;;;;5.90;2.80;;;;;;;6.91;73.60;97759.39;271970;1272;25425;-81
2024/04/16 18:49:22;;;;;;;6.10;3.30;;;;;;;6.84;73.90;97756.39;272154;1271;22413;-81
2024/04/16 18:56:10;;;;;;;10.20;4.50;;;;;;;6.73;74.07;97751.20;273058;1278;22273;-81
2024/04/16 19:02:38;;;;;;;10.40;4.80;;;;;;;6.64;74.19;97744.23;271963;1278;22638;-82
2024/04/16 19:08:40;;;;;;;11.40;4.80;;;;;;;6.50;74.24;97739.31;271940;1277;23142;-80
2024/04/16 19:15:23;;;;;;;11.70;5.20;;;;;;;6.29;75.70;97742.20;270864;1278;22327;-81
2024/04/16 19:22:14;;;;;;;14.20;7.40;;;;;;;6.14;76.78;97742.38;272486;1281;22413;-82
2024/04/16 19:28:41;;;;;;;10.80;5.70;;;;;;;5.97;78.20;97742.63;272192;1277;22297;-82
2024/04/16 19:34:42;;;;;;;10.10;5.60;;;;;;;5.92;80.30;97737.30;272938;1275;22238;-81
2024/04/16 19:41:03;;;;;;;13.80;6.00;;;;;;;5.84;80.07;97722.48;273011;1272;22459;-82
2024/04/16 19:47:50;;;;;;;12.40;6.40;;;;;;;5.76;79.89;97711.98;272889;1274;22272;-81
2024/04/16 19:55:12;;;;;;;15.40;6.70;;;;;;;5.66;79.46;97698.08;272983;1276;23079;-81
2024/04/16 20:01:27;;;;;;;11.50;5.00;;;;;;;5.58;79.96;97693.64;273044;1272;22300;-81
2024/04/16 20:07:29;;;;;;;13.00;5.20;;;;;;;5.49;81.16;97690.13;272914;1272;23598;-81
2024/04/16 20:14:15;;;;;;;8.60;4.60;;;;;;;5.47;82.64;97690.27;273188;1278;22276;-81
2024/04/16 20:20:22;;;;;;;7.80;4.20;;;;;;;5.40;82.29;97691.44;272353;1272;23201;-81
2024/04/16 20:27:05;;;;;;;7.90;3.90;;;;;;;5.34;81.77;97696.56;273043;1280;22283;-81
2024/04/16 20:34:38;;;;;;;9.80;4.50;;;;;;;5.38;81.97;97705.77;272340;1271;23703;-80
2024/04/16 20:40:39;;;;;;;8.30;3.50;;;;;;;5.41;81.82;97706.73;272975;1272;22473;-83
2024/04/16 20:46:40;;;;;;;9.10;4.40;;;;;;;5.37;81.83;97705.59;272832;1275;23184;-82
2024/04/16 20:53:04;;;;;;;9.70;4.70;;;;;;;5.30;82.12;97705.14;272950;1273;22334;-81
2024/04/16 21:12:21;;;;;;;9.30;4.40;;;;;;;5.38;82.79;97712.36;264604;1298;548875;-80
2024/04/16 21:18:22;;;;;;;10.80;5.20;;;;;;;5.30;83.35;97716.08;271592;1285;22443;-80
2024/04/16 21:24:24;;;;;;;7.20;3.90;;;;;;;5.25;83.40;97715.63;268291;1282;22628;-81
2024/04/16 21:30:25;;;;;;;9.50;3.80;;;;;;;5.24;83.38;97710.09;271450;1275;22281;-81
2024/04/16 21:36:27;;;;;;;6.40;3.50;;;;;;;5.23;83.25;97713.65;272318;1275;23196;-81
2024/04/16 21:42:29;;;;;;;8.10;3.80;;;;;;;5.23;83.18;97719.93;271419;1275;22261;-81
2024/04/16 21:48:34;;;;;;;10.80;4.30;;;;;;;5.23;83.11;97714.98;272212;1274;23027;-81
2024/04/16 21:54:37;;;;;;;10.50;3.40;;;;;;;5.21;83.33;97701.54;269044;1273;22374;-81
2024/04/16 22:00:39;;;;;;;9.60;3.60;;;;;;;5.16;83.50;97698.93;269243;1275;22432;-81
2024/04/16 22:06:40;;;;;;;6.70;3.20;;;;;;;5.12;83.32;97707.71;269197;1273;22555;-80
2024/04/16 22:12:44;;;;;;;7.70;2.70;;;;;;;5.09;83.48;97703.34;268660;1275;22553;-81
2024/04/16 22:18:45;;;;;;;5.60;2.60;;;;;;;5.04;83.99;97699.41;268905;1275;22556;-81
2024/04/16 22:24:47;;;;;;;8.80;2.50;;;;;;;4.95;84.02;97696.89;270655;1275;22296;-81
2024/04/16 22:30:49;;;;;;;7.10;2.50;;;;;;;4.89;83.85;97689.47;269942;1274;22451;-81
2024/04/16 22:36:50;;;;;;;7.50;2.40;;;;;;;4.90;83.76;97690.09;269255;1275;22652;-81
2024/04/16 22:42:52;;;;;;;7.70;2.70;;;;;;;4.89;83.59;97692.88;272127;1275;22344;-80
2024/04/16 22:48:53;;;;;;;5.00;2.20;;;;;;;4.85;83.57;97695.30;271696;1276;22387;-81
2024/04/16 22:54:55;;;;;;;3.20;2.20;;;;;;;4.76;83.81;97699.45;271366;1270;22473;-81
2024/04/16 23:00:56;;;;;;;7.20;2.90;;;;;;;4.71;85.06;97696.98;271627;1275;22581;-81
2024/04/16 23:07:18;;;;;;;4.50;2.10;;;;;;;4.63;85.96;97696.40;269964;1275;22556;-82
2024/04/16 23:13:20;;;;;;;6.90;2.20;;;;;;;4.52;85.97;97703.21;269884;1276;22413;-81
2024/04/16 23:19:22;;;;;;;3.40;2.10;;;;;;;4.44;86.63;97706.98;270010;1275;24216;-80
2024/04/16 23:25:37;;;;;;;4.60;2.30;;;;;;;4.42;87.58;97714.70;268486;1275;22594;-80
2024/04/16 23:31:39;;;;;;;5.40;2.60;;;;;;;4.30;87.24;97713.67;268625;1275;22561;-80
2024/04/16 23:37:40;;;;;;;4.70;2.50;;;;;;;4.19;87.72;97709.16;270727;1275;22271;-81
2024/04/16 23:43:42;;;;;;;5.10;2.30;;;;;;;4.12;88.77;97701.55;272418;1275;22294;-81
2024/04/16 23:49:43;;;;;;;5.10;2.00;;;;;;;4.07;89.41;97683.98;271211;1275;22449;-81
2024/04/16 23:55:47;;;;;;;8.60;2.70;;;;;;;3.98;89.16;97673.55;269401;1275;23011;-81
